Time;durP1;ratioP1;P1;durP2;ratioP2;P2;SDS_P1;SDS_P2;PMS_P1;PMS_P2;Temp;Humidity;BMP_temperature;BMP_pressure;BME280_temperature;BME280_humidity;BME280_pressure;Samples;Min_cycle;Max_cycle;Signal;HPM_P1;HPM_P2
2021/03/04 00:00:39;;;;;;;77.57;35.43;;;4.90;99.90;;;;;;4430479;32;20194;-74
2021/03/04 00:03:07;;;;;;;80.77;35.33;;;4.90;99.90;;;;;;4425732;32;20156;-74
2021/03/04 00:05:35;;;;;;;79.80;34.93;;;4.90;99.90;;;;;;4413068;32;20197;-74
2021/03/04 00:08:05;;;;;;;84.27;37.23;;;4.90;99.90;;;;;;4428355;32;20197;-74
2021/03/04 00:10:32;;;;;;;81.10;35.37;;;4.90;99.90;;;;;;4425883;32;20352;-74
2021/03/04 00:12:59;;;;;;;76.97;35.60;;;5.00;99.90;;;;;;4425860;32;20523;-74
2021/03/04 00:15:29;;;;;;;84.57;36.00;;;5.00;99.90;;;;;;4423799;32;20212;-73
2021/03/04 00:17:56;;;;;;;86.97;36.87;;;5.00;99.90;;;;;;4426497;32;20147;-75
2021/03/04 00:20:31;;;;;;;80.83;35.93;;;5.00;99.90;;;;;;4425700;32;20143;-74
2021/03/04 00:22:59;;;;;;;78.37;35.43;;;5.00;99.90;;;;;;4427192;32;20139;-74
2021/03/04 00:25:31;;;;;;;78.20;35.43;;;5.00;99.90;;;;;;4425837;32;20170;-74
2021/03/04 00:27:58;;;;;;;79.23;35.87;;;5.00;99.90;;;;;;4426879;32;20177;-74
2021/03/04 00:30:25;;;;;;;79.37;35.30;;;5.00;99.90;;;;;;4426056;32;20138;-74
2021/03/04 00:32:52;;;;;;;80.77;37.20;;;5.00;99.90;;;;;;4425557;32;20174;-74
2021/03/04 00:35:19;;;;;;;74.20;34.07;;;5.00;99.90;;;;;;4426683;32;20135;-74
2021/03/04 00:37:46;;;;;;;77.40;35.47;;;5.00;99.90;;;;;;4424877;32;20199;-74
2021/03/04 00:40:16;;;;;;;83.10;36.27;;;5.00;99.90;;;;;;4426366;32;20200;-74
2021/03/04 00:42:42;;;;;;;76.67;34.73;;;4.90;99.90;;;;;;4411716;32;20255;-74
2021/03/04 00:45:15;;;;;;;80.47;35.97;;;4.90;99.90;;;;;;4425386;32;20151;-74
2021/03/04 00:47:54;;;;;;;77.83;35.10;;;4.90;99.90;;;;;;4425841;32;20147;-74
2021/03/04 00:50:22;;;;;;;78.53;33.87;;;4.90;99.90;;;;;;4425334;32;20518;-74
2021/03/04 00:52:50;;;;;;;78.33;34.03;;;4.90;99.90;;;;;;4425340;32;20489;-74
2021/03/04 00:55:17;;;;;;;74.40;33.83;;;4.80;99.90;;;;;;4426451;32;20191;-74
2021/03/04 00:57:43;;;;;;;78.77;33.80;;;4.90;99.90;;;;;;4425136;32;20174;-74
2021/03/04 01:00:10;;;;;;;73.33;34.03;;;4.90;99.90;;;;;;4425518;32;20224;-74
2021/03/04 01:02:37;;;;;;;77.03;35.37;;;4.90;99.90;;;;;;4425668;32;20162;-74
2021/03/04 01:05:05;;;;;;;72.10;33.07;;;4.90;99.90;;;;;;4425033;32;20193;-74
2021/03/04 01:07:32;;;;;;;74.53;33.57;;;4.90;99.90;;;;;;4424742;32;20142;-74
2021/03/04 01:09:59;;;;;;;75.53;34.03;;;4.80;99.90;;;;;;4424667;32;20216;-74
2021/03/04 01:12:25;;;;;;;72.30;33.40;;;4.80;99.90;;;;;;4426488;32;20175;-74
2021/03/04 01:14:52;;;;;;;74.97;32.77;;;4.70;99.90;;;;;;4424924;32;20200;-74
2021/03/04 01:17:19;;;;;;;72.77;32.67;;;4.70;99.90;;;;;;4424692;32;20181;-74
2021/03/04 01:19:45;;;;;;;78.47;32.73;;;4.70;99.90;;;;;;4425083;32;20171;-74
2021/03/04 01:22:12;;;;;;;72.87;32.37;;;4.70;99.90;;;;;;4424861;32;20178;-74
2021/03/04 01:24:38;;;;;;;67.43;31.63;;;4.70;99.90;;;;;;4426029;32;20389;-74
2021/03/04 01:27:05;;;;;;;70.20;32.87;;;4.70;99.90;;;;;;4424618;32;20379;-74
2021/03/04 01:29:31;;;;;;;72.77;31.53;;;4.70;99.90;;;;;;4425036;32;20147;-74
2021/03/04 01:31:58;;;;;;;74.13;31.83;;;4.70;99.90;;;;;;4425967;32;20535;-74
2021/03/04 01:34:26;;;;;;;72.13;32.60;;;4.60;99.90;;;;;;4424701;32;20407;-74
2021/03/04 01:36:52;;;;;;;72.47;30.80;;;4.60;99.90;;;;;;4424694;32;20191;-74
2021/03/04 01:39:19;;;;;;;70.30;30.70;;;4.60;99.90;;;;;;4424727;32;20170;-74
2021/03/04 01:41:46;;;;;;;69.70;31.60;;;4.60;99.90;;;;;;4425251;32;20150;-74
2021/03/04 01:44:12;;;;;;;68.13;30.33;;;4.60;99.90;;;;;;4424627;32;20469;-74
2021/03/04 01:46:39;;;;;;;70.80;31.73;;;4.60;99.90;;;;;;4425295;32;20194;-74
2021/03/04 01:49:06;;;;;;;68.53;30.73;;;4.60;99.90;;;;;;4424519;32;20165;-74
2021/03/04 01:51:33;;;;;;;68.00;31.27;;;4.60;99.90;;;;;;4424452;32;20189;-74
2021/03/04 01:53:59;;;;;;;67.20;30.60;;;4.50;99.90;;;;;;4423798;32;20428;-74
2021/03/04 01:56:26;;;;;;;66.50;29.83;;;4.50;99.90;;;;;;4424632;32;20181;-74
2021/03/04 01:58:54;;;;;;;68.73;30.27;;;4.50;99.90;;;;;;4424221;32;20366;-74
2021/03/04 02:01:20;;;;;;;64.47;28.47;;;4.60;99.90;;;;;;4423834;32;20170;-74
2021/03/04 02:03:47;;;;;;;69.07;29.27;;;4.60;99.90;;;;;;4423864;32;20229;-74
2021/03/04 02:06:16;;;;;;;71.80;30.00;;;4.60;99.90;;;;;;4424377;32;20156;-74
2021/03/04 02:08:49;;;;;;;68.63;29.10;;;4.60;99.90;;;;;;4424364;32;20144;-74
2021/03/04 02:11:29;;;;;;;66.37;29.33;;;4.70;99.90;;;;;;4424862;32;20461;-74
2021/03/04 02:14:10;;;;;;;66.30;28.20;;;4.80;99.90;;;;;;4424407;32;20170;-74
2021/03/04 02:16:55;;;;;;;70.87;28.10;;;4.80;99.90;;;;;;4424352;32;20166;-74
2021/03/04 02:20:06;;;;;;;58.97;27.40;;;4.80;99.90;;;;;;4424856;32;20162;-74
2021/03/04 02:22:51;;;;;;;57.30;25.83;;;4.90;99.90;;;;;;4334080;33;20188;-74
2021/03/04 02:25:34;;;;;;;58.80;26.80;;;4.90;99.90;;;;;;4347592;33;20253;-74
2021/03/04 02:28:01;;;;;;;58.67;26.30;;;5.00;99.90;;;;;;4346819;33;20191;-75
2021/03/04 02:30:32;;;;;;;61.63;26.83;;;5.00;99.90;;;;;;4348150;33;20217;-75
2021/03/04 02:33:16;;;;;;;62.13;26.10;;;5.00;99.90;;;;;;4348232;33;20265;-75
2021/03/04 02:35:44;;;;;;;57.67;26.67;;;5.10;99.90;;;;;;4348053;33;20505;-75
2021/03/04 02:38:17;;;;;;;59.80;26.03;;;5.10;99.90;;;;;;4346618;33;20156;-75
2021/03/04 02:40:46;;;;;;;60.00;25.80;;;5.10;99.90;;;;;;4347302;33;20176;-75
2021/03/04 02:43:18;;;;;;;55.73;26.03;;;5.10;99.90;;;;;;4347126;33;20161;-75
2021/03/04 02:45:45;;;;;;;60.97;25.20;;;5.10;99.90;;;;;;4348126;33;20190;-75
2021/03/04 02:48:17;;;;;;;58.50;26.47;;;5.10;99.90;;;;;;4346767;33;20559;-75
2021/03/04 02:50:47;;;;;;;56.73;24.40;;;5.10;99.90;;;;;;4347863;33;20213;-75
2021/03/04 02:53:14;;;;;;;56.73;24.70;;;5.20;99.90;;;;;;4382268;32;20149;-75
2021/03/04 02:55:43;;;;;;;56.10;25.93;;;5.10;99.90;;;;;;4424119;32;20402;-75
2021/03/04 02:58:11;;;;;;;57.67;24.70;;;5.10;99.90;;;;;;4424081;32;20170;-75
2021/03/04 03:00:38;;;;;;;56.80;24.47;;;5.10;99.90;;;;;;4424106;32;20199;-75
2021/03/04 03:03:12;;;;;;;57.77;25.53;;;5.10;99.90;;;;;;4426892;32;20220;-75
2021/03/04 03:05:41;;;;;;;53.60;24.20;;;5.10;99.90;;;;;;4427649;32;20159;-75
2021/03/04 03:08:12;;;;;;;51.87;24.00;;;5.20;99.90;;;;;;4426944;32;20143;-75
2021/03/04 03:10:39;;;;;;;52.40;24.30;;;5.10;99.90;;;;;;4426367;32;20145;-75
2021/03/04 03:13:07;;;;;;;53.67;24.77;;;5.20;99.90;;;;;;4427807;32;20137;-75
2021/03/04 03:15:34;;;;;;;52.83;24.07;;;5.20;99.90;;;;;;4427404;32;20171;-75
2021/03/04 03:18:00;;;;;;;55.60;24.23;;;5.30;99.90;;;;;;4426184;32;20169;-75
2021/03/04 03:20:27;;;;;;;51.80;23.67;;;5.30;99.90;;;;;;4426908;32;20174;-74
2021/03/04 03:22:54;;;;;;;57.10;23.93;;;5.30;99.90;;;;;;4426635;32;20199;-74
2021/03/04 03:25:21;;;;;;;51.47;22.67;;;5.20;99.90;;;;;;4427949;32;20194;-74
2021/03/04 03:27:48;;;;;;;52.57;23.23;;;5.30;99.90;;;;;;4427537;32;20209;-74
2021/03/04 03:30:19;;;;;;;51.00;23.93;;;5.30;99.90;;;;;;4425996;32;20227;-74
2021/03/04 03:32:57;;;;;;;51.10;23.37;;;5.30;99.90;;;;;;4426481;32;20438;-74
2021/03/04 03:35:26;;;;;;;47.77;22.67;;;5.20;99.90;;;;;;4427414;32;20463;-74
2021/03/04 03:37:55;;;;;;;55.10;23.40;;;5.20;99.90;;;;;;4426422;32;20167;-74
2021/03/04 03:40:23;;;;;;;49.70;22.53;;;5.20;99.90;;;;;;4426114;32;20153;-74
2021/03/04 03:42:53;;;;;;;53.20;23.37;;;5.20;99.90;;;;;;4426572;32;20149;-74
2021/03/04 03:45:26;;;;;;;48.13;21.90;;;5.30;99.90;;;;;;4426234;32;20188;-74
2021/03/04 03:47:54;;;;;;;47.33;22.83;;;5.30;99.90;;;;;;4427642;32;20193;-74
2021/03/04 03:50:24;;;;;;;52.47;22.60;;;5.20;99.90;;;;;;4426387;32;20495;-74
2021/03/04 03:52:52;;;;;;;50.67;23.37;;;5.20;99.90;;;;;;4426338;32;20361;-74
2021/03/04 03:55:20;;;;;;;51.27;24.10;;;5.30;99.90;;;;;;4412022;32;20142;-74
2021/03/04 03:57:49;;;;;;;52.70;23.80;;;5.30;99.90;;;;;;4426104;32;20392;-74
2021/03/04 04:00:23;;;;;;;52.63;23.70;;;5.30;99.90;;;;;;4426037;32;20151;-74
2021/03/04 04:02:54;;;;;;;51.77;22.97;;;5.30;99.90;;;;;;4426005;32;20497;-74
2021/03/04 04:05:20;;;;;;;52.77;23.13;;;5.30;99.90;;;;;;4427227;32;20227;-74
2021/03/04 04:07:50;;;;;;;51.53;21.83;;;5.30;99.90;;;;;;4426028;32;20452;-74
2021/03/04 04:10:16;;;;;;;51.87;22.80;;;5.20;99.90;;;;;;4425292;32;20508;-74
2021/03/04 04:12:43;;;;;;;47.37;22.43;;;5.20;99.90;;;;;;4425827;32;20162;-74
2021/03/04 04:15:12;;;;;;;49.43;23.10;;;5.30;99.90;;;;;;4425565;32;20465;-73
2021/03/04 04:17:39;;;;;;;50.17;23.27;;;5.20;99.90;;;;;;4426232;32;20476;-74
2021/03/04 04:20:06;;;;;;;50.97;22.90;;;5.20;99.90;;;;;;4425769;32;20477;-74
2021/03/04 04:22:33;;;;;;;49.23;23.03;;;5.10;99.90;;;;;;4425842;32;20136;-74
2021/03/04 04:25:00;;;;;;;51.93;23.27;;;5.10;99.90;;;;;;4427211;32;20199;-74
2021/03/04 04:27:27;;;;;;;50.33;23.10;;;5.00;99.90;;;;;;4425838;32;20225;-74
2021/03/04 04:29:54;;;;;;;53.23;23.33;;;4.90;99.90;;;;;;4426413;32;20222;-74
2021/03/04 04:32:21;;;;;;;51.60;23.43;;;4.90;99.90;;;;;;4426617;32;20164;-74
2021/03/04 04:34:48;;;;;;;49.37;23.80;;;4.90;99.90;;;;;;4425662;32;20175;-74
2021/03/04 04:37:14;;;;;;;57.33;23.90;;;4.80;99.90;;;;;;4425821;32;20171;-73
2021/03/04 04:39:41;;;;;;;52.57;24.07;;;4.80;99.90;;;;;;4425516;32;20166;-74
2021/03/04 04:42:08;;;;;;;53.60;23.70;;;4.70;99.90;;;;;;4426083;32;20432;-74
2021/03/04 04:44:34;;;;;;;55.87;24.50;;;4.80;99.90;;;;;;4425888;32;20158;-73
2021/03/04 04:47:01;;;;;;;56.37;24.77;;;4.80;99.90;;;;;;4426363;32;20464;-74
2021/03/04 04:49:27;;;;;;;56.43;24.10;;;4.70;99.90;;;;;;4425440;32;20496;-73
2021/03/04 04:51:54;;;;;;;54.77;24.13;;;4.60;99.90;;;;;;4426778;32;20479;-73
2021/03/04 04:54:21;;;;;;;52.30;24.60;;;4.70;99.90;;;;;;4425331;32;20230;-74
2021/03/04 04:56:47;;;;;;;55.13;24.63;;;4.60;99.90;;;;;;4425530;32;20174;-74
2021/03/04 04:59:14;;;;;;;58.30;25.50;;;4.60;99.90;;;;;;4425200;32;20147;-73
2021/03/04 05:01:40;;;;;;;53.40;24.57;;;4.70;99.90;;;;;;4426074;32;20393;-73
2021/03/04 05:04:11;;;;;;;52.47;24.37;;;4.70;99.90;;;;;;4425237;32;20175;-73
2021/03/04 05:06:37;;;;;;;52.83;24.50;;;4.70;99.90;;;;;;4425028;32;20569;-73
2021/03/04 05:09:05;;;;;;;51.00;24.20;;;4.70;99.90;;;;;;4425351;32;20157;-74
2021/03/04 05:11:31;;;;;;;51.93;24.00;;;4.70;99.90;;;;;;4426392;32;20390;-73
2021/03/04 05:13:58;;;;;;;52.40;24.07;;;4.70;99.90;;;;;;4425387;32;20175;-73
2021/03/04 05:16:24;;;;;;;55.83;24.53;;;4.80;99.90;;;;;;4425579;32;20163;-73
2021/03/04 05:18:52;;;;;;;58.23;24.57;;;4.70;99.90;;;;;;4426424;32;20404;-73
2021/03/04 05:21:31;;;;;;;50.53;23.63;;;4.70;99.90;;;;;;4424358;32;20165;-74
2021/03/04 05:23:57;;;;;;;54.53;24.10;;;4.70;99.90;;;;;;4424875;32;20199;-73
2021/03/04 05:26:24;;;;;;;56.97;25.20;;;4.70;99.90;;;;;;4425437;32;20143;-74
2021/03/04 05:28:50;;;;;;;52.87;24.70;;;4.70;99.90;;;;;;4424681;32;20200;-73
2021/03/04 05:31:17;;;;;;;51.47;24.97;;;4.70;99.90;;;;;;4424666;32;20312;-74
2021/03/04 05:33:44;;;;;;;53.73;23.70;;;4.70;99.90;;;;;;4424445;32;20190;-73
2021/03/04 05:36:10;;;;;;;54.63;23.20;;;4.80;99.90;;;;;;4424834;32;20486;-73
2021/03/04 05:38:37;;;;;;;53.83;24.17;;;4.80;99.90;;;;;;4425097;32;20183;-74
2021/03/04 05:41:05;;;;;;;53.07;22.67;;;4.90;99.90;;;;;;4425223;32;20142;-73
2021/03/04 05:43:33;;;;;;;51.40;23.33;;;4.90;99.90;;;;;;4424693;32;20145;-73
2021/03/04 05:46:00;;;;;;;48.60;23.30;;;5.00;99.90;;;;;;4424081;32;20172;-74
2021/03/04 05:48:29;;;;;;;49.00;22.60;;;5.00;99.90;;;;;;4424559;32;20205;-74
2021/03/04 05:50:58;;;;;;;50.47;22.47;;;5.10;99.90;;;;;;4423864;32;20200;-74
2021/03/04 05:53:25;;;;;;;49.33;23.33;;;5.10;99.90;;;;;;4425188;32;20144;-74
2021/03/04 05:55:52;;;;;;;54.60;23.00;;;5.10;99.90;;;;;;4424763;32;20148;-73
2021/03/04 05:58:19;;;;;;;49.07;23.73;;;5.20;99.90;;;;;;4424537;32;20150;-73
2021/03/04 06:00:47;;;;;;;51.43;23.17;;;5.20;99.90;;;;;;4424853;32;20528;-73
2021/03/04 06:03:15;;;;;;;47.63;22.77;;;5.20;99.90;;;;;;4424871;32;20198;-73
2021/03/04 06:05:41;;;;;;;49.07;22.83;;;5.20;99.90;;;;;;4424393;32;20170;-74
2021/03/04 06:08:11;;;;;;;48.47;22.07;;;5.30;99.90;;;;;;4425041;32;20395;-74
2021/03/04 06:10:37;;;;;;;47.50;22.67;;;5.30;99.90;;;;;;4424749;32;20208;-73
2021/03/04 06:13:05;;;;;;;49.13;22.37;;;5.30;99.90;;;;;;4424165;32;20165;-73
2021/03/04 06:15:32;;;;;;;51.00;22.20;;;5.40;99.90;;;;;;4424358;32;20138;-74
2021/03/04 06:18:00;;;;;;;51.83;22.67;;;5.40;99.90;;;;;;4423815;32;20192;-74
2021/03/04 06:20:36;;;;;;;48.50;22.03;;;5.50;99.90;;;;;;4424223;32;20148;-73
2021/03/04 06:23:03;;;;;;;52.87;22.43;;;5.50;99.90;;;;;;4425272;32;20219;-74
2021/03/04 06:25:30;;;;;;;50.83;22.40;;;5.60;99.90;;;;;;4424315;32;20190;-74
2021/03/04 06:27:57;;;;;;;49.77;22.67;;;5.70;99.90;;;;;;4425139;32;20233;-74
2021/03/04 06:30:24;;;;;;;49.57;21.83;;;5.80;99.90;;;;;;4424821;32;20139;-74
2021/03/04 06:33:02;;;;;;;50.70;22.17;;;5.70;99.90;;;;;;4424222;32;20148;-73
2021/03/04 06:35:45;;;;;;;49.70;22.10;;;5.80;99.90;;;;;;4425697;32;20147;-75
2021/03/04 06:38:21;;;;;;;47.80;22.00;;;5.80;99.90;;;;;;4425859;32;20251;-75
2021/03/04 06:40:49;;;;;;;49.90;22.23;;;5.80;99.90;;;;;;4426554;32;20191;-73
2021/03/04 06:43:21;;;;;;;49.27;22.43;;;5.80;99.90;;;;;;4442307;32;20214;-74
2021/03/04 06:45:48;;;;;;;51.17;23.17;;;5.80;99.90;;;;;;4442328;32;20204;-74
2021/03/04 06:48:17;;;;;;;47.03;22.37;;;5.80;99.90;;;;;;4443481;32;20150;-73
2021/03/04 06:50:49;;;;;;;48.23;22.90;;;5.90;99.90;;;;;;4442354;32;20145;-73
2021/03/04 06:53:20;;;;;;;51.30;22.73;;;5.90;99.90;;;;;;4443956;32;20204;-72
2021/03/04 06:56:06;;;;;;;54.07;23.47;;;6.10;99.90;;;;;;4442274;32;20193;-73
2021/03/04 06:58:41;;;;;;;51.13;23.93;;;6.10;99.90;;;;;;4442229;32;20206;-74
2021/03/04 07:01:12;;;;;;;47.40;22.57;;;6.10;99.90;;;;;;4443669;32;20257;-74
2021/03/04 07:03:44;;;;;;;46.30;22.60;;;6.20;99.90;;;;;;4441612;32;20211;-74
2021/03/04 07:06:35;;;;;;;52.67;23.47;;;6.10;99.90;;;;;;4441665;32;20176;-74
2021/03/04 07:09:03;;;;;;;49.23;23.63;;;6.20;99.90;;;;;;4442181;32;20440;-74
2021/03/04 07:11:30;;;;;;;53.23;23.67;;;6.20;99.90;;;;;;4442411;32;20505;-74
2021/03/04 07:13:58;;;;;;;51.73;24.33;;;6.30;99.90;;;;;;4441848;32;20363;-74
2021/03/04 07:16:32;;;;;;;50.07;23.27;;;6.30;99.90;;;;;;4441897;32;20435;-74
2021/03/04 07:19:00;;;;;;;50.80;22.73;;;6.30;99.90;;;;;;4441229;32;20165;-74
2021/03/04 07:21:33;;;;;;;54.43;24.57;;;6.20;99.90;;;;;;4441785;32;20166;-75
2021/03/04 07:24:04;;;;;;;54.97;24.57;;;6.30;99.90;;;;;;4442022;32;20161;-74
2021/03/04 07:26:31;;;;;;;51.77;23.50;;;6.20;99.90;;;;;;4428169;32;20184;-74
2021/03/04 07:29:01;;;;;;;53.97;23.40;;;6.20;99.90;;;;;;4442230;32;20218;-74
2021/03/04 07:31:28;;;;;;;48.57;22.93;;;6.20;99.90;;;;;;4440951;32;20182;-73
2021/03/04 07:33:56;;;;;;;52.10;23.10;;;6.20;99.90;;;;;;4441172;32;20196;-73
2021/03/04 07:36:24;;;;;;;56.60;23.30;;;6.30;99.90;;;;;;4441562;32;20480;-73
2021/03/04 07:39:00;;;;;;;55.73;25.27;;;6.20;99.90;;;;;;4441573;32;20196;-74
2021/03/04 07:41:45;;;;;;;55.90;25.10;;;6.20;99.90;;;;;;4427072;32;20297;-73
2021/03/04 07:44:33;;;;;;;56.00;24.20;;;6.30;99.90;;;;;;4442337;32;20148;-72
2021/03/04 07:47:07;;;;;;;56.63;24.57;;;6.30;99.90;;;;;;4441212;32;20150;-74
2021/03/04 07:49:36;;;;;;;57.07;24.40;;;6.40;99.90;;;;;;4441374;32;20466;-74
2021/03/04 07:52:29;;;;;;;51.93;23.93;;;6.50;99.90;;;;;;4440722;32;20160;-74
2021/03/04 07:55:08;;;;;;;53.00;25.13;;;6.60;99.90;;;;;;4438681;32;20175;-74
2021/03/04 07:57:43;;;;;;;49.73;24.57;;;6.70;99.90;;;;;;4441295;32;20156;-74
2021/03/04 08:00:10;;;;;;;49.43;24.37;;;6.70;99.90;;;;;;4442859;32;20175;-74
2021/03/04 08:02:38;;;;;;;52.03;25.57;;;6.80;99.90;;;;;;4440943;32;20474;-73
2021/03/04 08:05:16;;;;;;;53.03;25.23;;;6.70;99.90;;;;;;4440512;32;20152;-73
2021/03/04 08:07:47;;;;;;;55.53;25.13;;;6.70;99.90;;;;;;4441058;32;20439;-74
2021/03/04 08:10:22;;;;;;;57.10;25.90;;;6.50;99.90;;;;;;4440690;32;20180;-74
2021/03/04 08:12:53;;;;;;;52.87;24.10;;;6.60;99.90;;;;;;4427192;32;20308;-74
2021/03/04 08:15:21;;;;;;;59.23;27.27;;;6.70;99.90;;;;;;4441271;32;20166;-74
2021/03/04 08:17:48;;;;;;;58.03;26.67;;;6.60;99.90;;;;;;4440651;32;20227;-73
2021/03/04 08:20:17;;;;;;;57.43;27.23;;;6.70;99.90;;;;;;4438386;32;20478;-74
2021/03/04 08:22:46;;;;;;;54.20;25.83;;;6.70;99.90;;;;;;4436181;32;20164;-75
2021/03/04 08:25:19;;;;;;;56.37;25.77;;;6.70;99.90;;;;;;4432108;32;20168;-72
2021/03/04 08:27:47;;;;;;;53.27;25.50;;;7.00;99.90;;;;;;4426912;32;20484;-74
2021/03/04 08:30:14;;;;;;;57.53;26.77;;;6.90;99.90;;;;;;4425403;32;20159;-74
2021/03/04 08:32:43;;;;;;;52.53;26.80;;;6.90;99.90;;;;;;4425401;32;20147;-75
2021/03/04 08:35:20;;;;;;;58.07;27.10;;;6.90;99.90;;;;;;4424763;32;20169;-75
2021/03/04 08:38:20;;;;;;;60.23;28.50;;;6.80;99.90;;;;;;4425208;32;20171;-75
2021/03/04 08:40:51;;;;;;;55.60;27.20;;;6.70;99.90;;;;;;4424185;32;20259;-75
2021/03/04 08:43:19;;;;;;;60.47;28.60;;;6.50;99.90;;;;;;4424849;32;20511;-77
2021/03/04 08:45:51;;;;;;;57.57;28.77;;;6.10;99.90;;;;;;4425232;32;20143;-72
2021/03/04 08:48:19;;;;;;;62.83;28.50;;;6.10;99.90;;;;;;4425677;32;20144;-71
2021/03/04 08:50:48;;;;;;;59.57;29.27;;;6.10;99.90;;;;;;4425801;32;20150;-70
2021/03/04 08:53:21;;;;;;;57.83;26.43;;;6.00;99.90;;;;;;4425782;32;20208;-72
2021/03/04 08:55:50;;;;;;;53.87;26.57;;;6.10;99.90;;;;;;4425854;32;20207;-72
2021/03/04 08:58:18;;;;;;;57.27;26.90;;;6.20;99.90;;;;;;4424809;32;20214;-72
2021/03/04 09:00:51;;;;;;;56.47;27.70;;;6.20;99.90;;;;;;4424457;32;20145;-71
2021/03/04 09:03:20;;;;;;;53.17;26.27;;;6.30;99.90;;;;;;4424938;32;20196;-71
2021/03/04 09:05:47;;;;;;;50.57;25.80;;;6.50;99.90;;;;;;4424809;32;20174;-72
2021/03/04 09:08:16;;;;;;;54.30;26.87;;;6.40;99.90;;;;;;4424967;32;20167;-73
2021/03/04 09:10:48;;;;;;;52.40;27.00;;;6.10;99.90;;;;;;4424852;32;20417;-72
2021/03/04 09:13:25;;;;;;;51.37;25.30;;;6.10;99.90;;;;;;4424924;32;20172;-72
2021/03/04 09:15:55;;;;;;;52.37;26.80;;;6.20;99.90;;;;;;4424177;32;20182;-72
2021/03/04 09:18:24;;;;;;;53.07;25.37;;;6.20;99.90;;;;;;4424324;32;20397;-72
2021/03/04 09:20:52;;;;;;;51.67;24.43;;;6.10;99.90;;;;;;4425856;32;20157;-72
2021/03/04 09:23:20;;;;;;;58.83;26.77;;;6.10;99.90;;;;;;4425753;32;20421;-73
2021/03/04 09:25:47;;;;;;;52.67;26.87;;;6.00;99.90;;;;;;4411804;32;20485;-73
2021/03/04 09:28:17;;;;;;;52.93;26.80;;;6.10;99.90;;;;;;4438238;32;20150;-74
2021/03/04 09:30:46;;;;;;;57.33;27.30;;;6.10;99.90;;;;;;4433175;32;20404;-72
2021/03/04 09:33:22;;;;;;;65.03;31.00;;;6.10;99.90;;;;;;4424527;32;20200;-73
2021/03/04 09:35:56;;;;;;;64.50;31.03;;;6.10;99.90;;;;;;4424922;32;20152;-72
2021/03/04 09:38:24;;;;;;;63.80;32.10;;;6.00;99.90;;;;;;4425141;32;20511;-72
2021/03/04 09:41:15;;;;;;;65.00;32.00;;;6.00;99.90;;;;;;4426344;32;20233;-73
2021/03/04 09:43:46;;;;;;;66.40;32.83;;;5.70;99.90;;;;;;4424150;32;20175;-72
2021/03/04 09:46:32;;;;;;;64.20;32.03;;;5.70;99.90;;;;;;4424301;32;20183;-72
2021/03/04 09:49:15;;;;;;;65.83;32.53;;;5.50;99.90;;;;;;4424495;32;20135;-72
2021/03/04 09:51:45;;;;;;;65.67;31.63;;;5.40;99.90;;;;;;4424563;32;20258;-72
2021/03/04 09:54:22;;;;;;;68.47;32.00;;;5.30;99.90;;;;;;4424165;32;20178;-72
2021/03/04 09:57:21;;;;;;;63.03;30.23;;;5.20;99.90;;;;;;4424028;32;20151;-72
2021/03/04 09:59:49;;;;;;;60.90;28.90;;;5.30;99.90;;;;;;4346218;33;20179;-74
2021/03/04 10:02:18;;;;;;;60.20;29.97;;;5.20;99.90;;;;;;4352944;33;20209;-75
2021/03/04 10:05:03;;;;;;;59.60;28.90;;;5.00;99.90;;;;;;4367939;32;20140;-75
2021/03/04 10:07:31;;;;;;;65.33;28.77;;;5.10;99.90;;;;;;4362196;32;20223;-74
2021/03/04 10:09:59;;;;;;;58.70;28.53;;;5.00;99.90;;;;;;4361252;32;20207;-74
2021/03/04 10:12:26;;;;;;;63.13;29.80;;;4.90;99.90;;;;;;4361916;32;20493;-74
2021/03/04 10:14:53;;;;;;;62.07;28.93;;;4.70;99.90;;;;;;4361397;33;20198;-74
2021/03/04 10:17:21;;;;;;;63.57;30.13;;;4.60;99.90;;;;;;4361781;32;20781;-75
2021/03/04 10:19:48;;;;;;;60.77;28.50;;;4.70;99.90;;;;;;4362752;32;20198;-74
2021/03/04 10:22:15;;;;;;;58.10;27.93;;;4.70;99.90;;;;;;4363033;32;20173;-75
2021/03/04 10:24:42;;;;;;;61.23;28.87;;;4.70;99.90;;;;;;4371041;32;20152;-71
2021/03/04 10:27:08;;;;;;;57.30;26.90;;;4.60;99.90;;;;;;4363401;32;20280;-71
2021/03/04 10:29:37;;;;;;;55.17;27.40;;;4.60;99.90;;;;;;4362325;33;20207;-71
2021/03/04 10:32:05;;;;;;;51.03;25.73;;;4.70;99.90;;;;;;4367162;32;20164;-72
2021/03/04 10:34:32;;;;;;;53.70;26.03;;;4.60;99.90;;;;;;4375898;32;20174;-71
2021/03/04 10:36:58;;;;;;;50.50;25.20;;;4.60;99.90;;;;;;4412614;32;20521;-71
2021/03/04 10:39:25;;;;;;;57.33;26.03;;;4.70;99.90;;;;;;4439313;32;20165;-71
2021/03/04 10:41:51;;;;;;;54.13;26.03;;;4.50;99.90;;;;;;4439114;32;20151;-74
2021/03/04 10:44:18;;;;;;;55.23;25.13;;;4.50;99.90;;;;;;4439648;32;20230;-73
2021/03/04 10:46:44;;;;;;;51.63;24.87;;;4.50;99.90;;;;;;4438935;32;20177;-74
2021/03/04 10:49:11;;;;;;;50.87;24.40;;;4.40;99.90;;;;;;4439197;32;20194;-74
2021/03/04 10:51:37;;;;;;;48.23;23.67;;;4.30;99.90;;;;;;4425124;32;20574;-74
2021/03/04 10:54:04;;;;;;;50.13;24.60;;;4.30;99.90;;;;;;4438760;32;20526;-74
2021/03/04 10:56:30;;;;;;;46.37;23.17;;;4.40;99.90;;;;;;4439186;32;20546;-74
2021/03/04 10:58:57;;;;;;;49.67;23.30;;;4.40;99.90;;;;;;4438902;32;20138;-75
2021/03/04 11:01:24;;;;;;;49.57;23.20;;;4.40;99.90;;;;;;4439051;32;20396;-72
2021/03/04 11:03:51;;;;;;;50.20;23.73;;;4.50;99.90;;;;;;4448051;32;20187;-73
2021/03/04 11:06:18;;;;;;;53.80;24.40;;;4.40;99.90;;;;;;4454332;32;20158;-74
2021/03/04 11:08:45;;;;;;;50.00;23.30;;;4.30;99.90;;;;;;4454544;32;20170;-74
2021/03/04 11:11:11;;;;;;;48.47;22.37;;;4.40;99.90;;;;;;4454723;32;20147;-75
2021/03/04 11:13:38;;;;;;;49.83;23.50;;;4.50;99.90;;;;;;4453984;32;20184;-74
2021/03/04 11:16:05;;;;;;;51.90;23.60;;;4.40;99.90;;;;;;4440276;32;20151;-74
2021/03/04 11:18:32;;;;;;;48.50;23.57;;;4.50;99.90;;;;;;4454232;32;20522;-75
2021/03/04 11:20:59;;;;;;;53.30;23.40;;;4.60;99.90;;;;;;4454056;32;20181;-74
2021/03/04 11:23:25;;;;;;;51.67;24.10;;;4.50;99.90;;;;;;4455025;32;20449;-74
2021/03/04 11:26:00;;;;;;;50.37;23.57;;;4.50;99.90;;;;;;4456813;32;20168;-75
2021/03/04 11:28:27;;;;;;;50.53;23.00;;;4.50;99.90;;;;;;4457391;32;20185;-74
2021/03/04 11:30:55;;;;;;;49.73;23.53;;;4.50;99.90;;;;;;4443347;32;20198;-75
2021/03/04 11:33:22;;;;;;;52.13;23.83;;;4.50;99.90;;;;;;4457010;32;20148;-75
2021/03/04 11:35:49;;;;;;;49.53;23.57;;;4.50;99.90;;;;;;4457150;32;20496;-75
2021/03/04 11:38:16;;;;;;;51.97;23.77;;;4.50;99.90;;;;;;4456878;32;20192;-74
2021/03/04 11:40:43;;;;;;;48.07;23.20;;;4.30;99.90;;;;;;4457941;32;20161;-74
2021/03/04 11:43:10;;;;;;;49.63;22.67;;;4.40;99.90;;;;;;4458929;32;20207;-75
2021/03/04 11:45:36;;;;;;;49.77;24.00;;;4.50;99.90;;;;;;4456090;32;20173;-75
2021/03/04 11:48:04;;;;;;;47.93;22.53;;;4.60;99.90;;;;;;4456732;32;20159;-76
2021/03/04 11:50:31;;;;;;;52.40;24.00;;;4.50;99.90;;;;;;4457689;32;20209;-75
2021/03/04 11:52:57;;;;;;;51.23;22.60;;;4.60;99.90;;;;;;4457268;32;20160;-75
2021/03/04 11:55:24;;;;;;;54.37;24.03;;;4.60;99.90;;;;;;4457027;32;20169;-75
2021/03/04 11:57:50;;;;;;;48.03;23.23;;;4.30;99.90;;;;;;4456675;32;20167;-75
2021/03/04 12:00:17;;;;;;;50.53;22.90;;;4.30;99.90;;;;;;4456772;32;20166;-76
2021/03/04 12:02:43;;;;;;;54.80;23.67;;;4.30;99.90;;;;;;4456566;32;20411;-76
2021/03/04 12:05:11;;;;;;;45.97;21.73;;;4.20;99.90;;;;;;4457909;32;20151;-76
2021/03/04 12:07:37;;;;;;;45.93;20.70;;;4.20;99.90;;;;;;4456917;32;20181;-75
2021/03/04 12:10:04;;;;;;;44.50;20.90;;;4.30;99.90;;;;;;4456838;32;20202;-75
2021/03/04 12:12:31;;;;;;;45.07;20.73;;;4.30;99.90;;;;;;4456706;32;20377;-74
2021/03/04 12:14:59;;;;;;;46.70;20.17;;;4.10;99.90;;;;;;4456396;32;20146;-75
2021/03/04 12:17:25;;;;;;;46.37;21.47;;;4.10;99.90;;;;;;4457843;32;20193;-75
2021/03/04 12:19:53;;;;;;;49.47;21.37;;;4.10;99.90;;;;;;4456360;32;20138;-75
2021/03/04 12:22:19;;;;;;;48.97;21.63;;;4.00;99.90;;;;;;4456658;32;20151;-75
2021/03/04 12:24:46;;;;;;;49.07;21.13;;;4.00;99.90;;;;;;4456369;32;20483;-75
2021/03/04 12:27:13;;;;;;;50.57;21.93;;;4.00;99.90;;;;;;4456335;32;20173;-74
2021/03/04 12:29:39;;;;;;;46.10;20.90;;;4.00;99.90;;;;;;4456434;32;20139;-74
2021/03/04 12:32:06;;;;;;;47.07;20.77;;;4.10;99.90;;;;;;4456410;32;20188;-75
2021/03/04 12:34:33;;;;;;;49.90;21.07;;;3.90;99.90;;;;;;4455571;32;20191;-74
2021/03/04 12:37:00;;;;;;;48.77;20.87;;;3.90;99.90;;;;;;4454394;32;20145;-74
2021/03/04 12:39:26;;;;;;;51.43;21.83;;;3.80;99.90;;;;;;4454994;32;20153;-75
2021/03/04 12:41:54;;;;;;;46.37;21.13;;;3.90;99.90;;;;;;4456196;32;20177;-74
2021/03/04 12:44:21;;;;;;;49.30;20.83;;;3.80;99.90;;;;;;4456152;32;20162;-74
2021/03/04 12:46:47;;;;;;;49.17;19.80;;;3.70;99.90;;;;;;4456190;32;20201;-74